sensor_id;sensor_type;location;lat;lon;timestamp;pressure;altitude;pressure_sealevel;temperature;humidity
39455;BME280;25155;41.890;23.446;2023-03-03T00:00:05;91776.75;;;3.79;67.39
39455;BME280;25155;41.890;23.446;2023-03-03T00:02:33;91779.63;;;3.82;67.07
39455;BME280;25155;41.890;23.446;2023-03-03T00:05:00;91771.59;;;3.84;67.39
39455;BME280;25155;41.890;23.446;2023-03-03T00:07:27;91772.91;;;3.87;66.88
39455;BME280;25155;41.890;23.446;2023-03-03T00:09:54;91776.25;;;3.82;67.17
39455;BME280;25155;41.890;23.446;2023-03-03T00:12:24;91770.50;;;3.80;66.98
39455;BME280;25155;41.890;23.446;2023-03-03T00:14:53;91766.13;;;3.80;66.85
39455;BME280;25155;41.890;23.446;2023-03-03T00:17:23;91761.19;;;3.79;66.71
39455;BME280;25155;41.890;23.446;2023-03-03T00:19:51;91760.63;;;3.77;67.17
39455;BME280;25155;41.890;23.446;2023-03-03T00:22:27;91756.97;;;3.73;66.85
39455;BME280;25155;41.890;23.446;2023-03-03T00:24:57;91753.03;;;3.70;67.11
39455;BME280;25155;41.890;23.446;2023-03-03T00:27:29;91749.91;;;3.68;67.30
39455;BME280;25155;41.890;23.446;2023-03-03T00:29:59;91742.94;;;3.69;67.36
39455;BME280;25155;41.890;23.446;2023-03-03T00:32:30;91744.72;;;3.68;67.65
39455;BME280;25155;41.890;23.446;2023-03-03T00:35:22;91742.81;;;3.58;68.02
39455;BME280;25155;41.890;23.446;2023-03-03T00:37:54;91737.28;;;3.50;68.69
39455;BME280;25155;41.890;23.446;2023-03-03T00:40:23;91734.94;;;3.48;68.36
39455;BME280;25155;41.890;23.446;2023-03-03T00:42:53;91730.41;;;3.38;69.22
39455;BME280;25155;41.890;23.446;2023-03-03T00:45:31;91726.88;;;3.22;70.06
39455;BME280;25155;41.890;23.446;2023-03-03T00:48:15;91740.88;;;3.04;70.59
39455;BME280;25155;41.890;23.446;2023-03-03T00:50:45;91734.75;;;2.94;71.10
39455;BME280;25155;41.890;23.446;2023-03-03T00:53:13;91728.66;;;2.83;71.80
39455;BME280;25155;41.890;23.446;2023-03-03T00:55:42;91739.66;;;2.73;71.55
39455;BME280;25155;41.890;23.446;2023-03-03T00:58:10;91726.66;;;2.68;71.20
39455;BME280;25155;41.890;23.446;2023-03-03T01:00:39;91718.09;;;2.50;71.46
39455;BME280;25155;41.890;23.446;2023-03-03T01:03:08;91718.09;;;2.50;71.98
39455;BME280;25155;41.890;23.446;2023-03-03T01:05:36;91721.06;;;2.59;72.10
39455;BME280;25155;41.890;23.446;2023-03-03T01:08:04;91716.22;;;2.63;72.67
39455;BME280;25155;41.890;23.446;2023-03-03T01:10:34;91715.59;;;2.55;71.88
39455;BME280;25155;41.890;23.446;2023-03-03T01:13:02;91710.19;;;2.57;72.38
39455;BME280;25155;41.890;23.446;2023-03-03T01:15:30;91713.31;;;2.59;72.27
39455;BME280;25155;41.890;23.446;2023-03-03T01:17:59;91715.28;;;2.52;72.64
39455;BME280;25155;41.890;23.446;2023-03-03T01:20:26;91711.84;;;2.46;73.00
39455;BME280;25155;41.890;23.446;2023-03-03T01:22:54;91708.09;;;2.37;72.58
39455;BME280;25155;41.890;23.446;2023-03-03T01:25:22;91707.84;;;2.39;72.85
39455;BME280;25155;41.890;23.446;2023-03-03T01:27:49;91708.56;;;2.34;72.52
39455;BME280;25155;41.890;23.446;2023-03-03T01:30:16;91702.44;;;2.40;72.04
39455;BME280;25155;41.890;23.446;2023-03-03T01:32:43;91690.38;;;2.29;72.59
39455;BME280;25155;41.890;23.446;2023-03-03T01:35:12;91701.97;;;2.43;72.37
39455;BME280;25155;41.890;23.446;2023-03-03T01:37:39;91697.66;;;2.49;72.12
39455;BME280;25155;41.890;23.446;2023-03-03T01:40:13;91695.19;;;2.59;71.94
39455;BME280;25155;41.890;23.446;2023-03-03T01:42:41;91689.56;;;2.62;72.07
39455;BME280;25155;41.890;23.446;2023-03-03T01:45:20;91692.84;;;2.58;71.98
39455;BME280;25155;41.890;23.446;2023-03-03T01:47:55;91691.06;;;2.58;72.18
39455;BME280;25155;41.890;23.446;2023-03-03T01:50:35;91694.50;;;2.64;72.30
39455;BME280;25155;41.890;23.446;2023-03-03T01:53:11;91690.66;;;2.66;72.00
39455;BME280;25155;41.890;23.446;2023-03-03T01:55:41;91677.78;;;2.71;71.80
39455;BME280;25155;41.890;23.446;2023-03-03T01:58:13;91686.16;;;2.79;71.57
39455;BME280;25155;41.890;23.446;2023-03-03T02:00:44;91682.56;;;2.80;71.31
39455;BME280;25155;41.890;23.446;2023-03-03T02:03:16;91672.78;;;2.87;71.28
39455;BME280;25155;41.890;23.446;2023-03-03T02:05:46;91673.41;;;2.94;70.82
39455;BME280;25155;41.890;23.446;2023-03-03T02:08:15;91668.22;;;2.94;70.68
39455;BME280;25155;41.890;23.446;2023-03-03T02:10:47;91676.09;;;2.99;70.19
39455;BME280;25155;41.890;23.446;2023-03-03T02:13:15;91677.66;;;3.00;70.09
39455;BME280;25155;41.890;23.446;2023-03-03T02:15:42;91670.41;;;3.02;70.08
39455;BME280;25155;41.890;23.446;2023-03-03T02:18:11;91672.47;;;3.00;69.67
39455;BME280;25155;41.890;23.446;2023-03-03T02:20:54;91665.19;;;2.97;69.51
39455;BME280;25155;41.890;23.446;2023-03-03T02:23:27;91665.25;;;3.02;69.78
39455;BME280;25155;41.890;23.446;2023-03-03T02:26:06;91661.63;;;3.03;69.92
39455;BME280;25155;41.890;23.446;2023-03-03T02:28:35;91664.00;;;3.05;69.69
39455;BME280;25155;41.890;23.446;2023-03-03T02:31:06;91663.22;;;3.04;69.61
39455;BME280;25155;41.890;23.446;2023-03-03T02:33:35;91661.47;;;3.10;69.75
39455;BME280;25155;41.890;23.446;2023-03-03T02:36:02;91663.31;;;3.15;69.72
39455;BME280;25155;41.890;23.446;2023-03-03T02:38:36;91667.72;;;3.14;69.21
39455;BME280;25155;41.890;23.446;2023-03-03T02:41:12;91668.50;;;3.15;69.18
39455;BME280;25155;41.890;23.446;2023-03-03T02:43:47;91668.78;;;3.18;69.46
39455;BME280;25155;41.890;23.446;2023-03-03T02:46:17;91665.50;;;3.23;69.02
39455;BME280;25155;41.890;23.446;2023-03-03T02:48:44;91669.66;;;3.24;69.22
39455;BME280;25155;41.890;23.446;2023-03-03T02:51:11;91668.13;;;3.28;69.02
39455;BME280;25155;41.890;23.446;2023-03-03T02:53:39;91671.25;;;3.30;68.83
39455;BME280;25155;41.890;23.446;2023-03-03T02:56:08;91676.19;;;3.32;68.64
39455;BME280;25155;41.890;23.446;2023-03-03T02:58:36;91669.28;;;3.37;68.83
39455;BME280;25155;41.890;23.446;2023-03-03T03:01:03;91668.78;;;3.40;68.28
39455;BME280;25155;41.890;23.446;2023-03-03T03:03:31;91664.91;;;3.43;68.52
39455;BME280;25155;41.890;23.446;2023-03-03T03:05:58;91662.09;;;3.44;68.45
39455;BME280;25155;41.890;23.446;2023-03-03T03:08:26;91670.41;;;3.46;68.18
39455;BME280;25155;41.890;23.446;2023-03-03T03:10:54;91667.50;;;3.43;68.57
39455;BME280;25155;41.890;23.446;2023-03-03T03:13:24;91666.00;;;3.47;68.40
39455;BME280;25155;41.890;23.446;2023-03-03T03:15:51;91661.91;;;3.51;68.34
39455;BME280;25155;41.890;23.446;2023-03-03T03:18:18;91666.84;;;3.53;68.52
39455;BME280;25155;41.890;23.446;2023-03-03T03:20:46;91666.31;;;3.51;68.36
39455;BME280;25155;41.890;23.446;2023-03-03T03:23:13;91667.31;;;3.50;68.36
39455;BME280;25155;41.890;23.446;2023-03-03T03:25:40;91672.75;;;3.48;68.42
39455;BME280;25155;41.890;23.446;2023-03-03T03:28:10;91668.84;;;3.45;68.24
39455;BME280;25155;41.890;23.446;2023-03-03T03:30:40;91673.47;;;3.43;67.90
39455;BME280;25155;41.890;23.446;2023-03-03T03:33:08;91672.44;;;3.44;68.02
39455;BME280;25155;41.890;23.446;2023-03-03T03:35:36;91668.84;;;3.45;67.73
39455;BME280;25155;41.890;23.446;2023-03-03T03:38:05;91665.94;;;3.42;67.67
39455;BME280;25155;41.890;23.446;2023-03-03T03:40:32;91674.75;;;3.41;67.58
39455;BME280;25155;41.890;23.446;2023-03-03T03:42:59;91665.41;;;3.40;67.78
39455;BME280;25155;41.890;23.446;2023-03-03T03:45:27;91660.47;;;3.38;67.99
39455;BME280;25155;41.890;23.446;2023-03-03T03:47:56;91662.53;;;3.36;67.88
39455;BME280;25155;41.890;23.446;2023-03-03T03:50:23;91661.50;;;3.37;67.80
39455;BME280;25155;41.890;23.446;2023-03-03T03:52:51;91669.03;;;3.39;67.72
39455;BME280;25155;41.890;23.446;2023-03-03T03:55:18;91659.69;;;3.38;68.09
39455;BME280;25155;41.890;23.446;2023-03-03T03:57:47;91660.22;;;3.40;68.04
39455;BME280;25155;41.890;23.446;2023-03-03T04:00:15;91664.16;;;3.42;67.68
39455;BME280;25155;41.890;23.446;2023-03-03T04:02:42;91665.16;;;3.41;67.45
39455;BME280;25155;41.890;23.446;2023-03-03T04:05:11;91664.34;;;3.36;67.66
39455;BME280;25155;41.890;23.446;2023-03-03T04:07:38;91665.50;;;3.23;68.24
39455;BME280;25155;41.890;23.446;2023-03-03T04:10:06;91664.38;;;3.19;68.30
39455;BME280;25155;41.890;23.446;2023-03-03T04:12:34;91668.97;;;3.12;68.88
39455;BME280;25155;41.890;23.446;2023-03-03T04:15:04;91673.09;;;3.07;68.81
39455;BME280;25155;41.890;23.446;2023-03-03T04:17:31;91672.59;;;3.10;68.80
39455;BME280;25155;41.890;23.446;2023-03-03T04:19:58;91669.50;;;3.14;68.91
39455;BME280;25155;41.890;23.446;2023-03-03T04:22:28;91669.28;;;3.15;68.57
39455;BME280;25155;41.890;23.446;2023-03-03T04:24:58;91672.09;;;3.14;68.87
39455;BME280;25155;41.890;23.446;2023-03-03T04:27:30;91665.31;;;3.07;69.30
39455;BME280;25155;41.890;23.446;2023-03-03T04:29:57;91668.38;;;3.04;69.74
39455;BME280;25155;41.890;23.446;2023-03-03T04:32:24;91673.56;;;3.04;69.62
39455;BME280;25155;41.890;23.446;2023-03-03T04:34:51;91674.63;;;3.08;69.23
39455;BME280;25155;41.890;23.446;2023-03-03T04:37:19;91664.56;;;3.12;69.45
39455;BME280;25155;41.890;23.446;2023-03-03T04:39:47;91667.91;;;3.07;69.12
39455;BME280;25155;41.890;23.446;2023-03-03T04:42:15;91675.28;;;2.99;69.94
39455;BME280;25155;41.890;23.446;2023-03-03T04:44:43;91677.50;;;2.90;69.81
39455;BME280;25155;41.890;23.446;2023-03-03T04:47:10;91677.03;;;2.93;70.03
39455;BME280;25155;41.890;23.446;2023-03-03T04:49:37;91679.16;;;2.96;69.57
39455;BME280;25155;41.890;23.446;2023-03-03T04:52:04;91682.53;;;2.97;69.61
39455;BME280;25155;41.890;23.446;2023-03-03T04:54:32;91677.13;;;2.98;69.58
39455;BME280;25155;41.890;23.446;2023-03-03T04:57:00;91677.34;;;2.97;69.27
39455;BME280;25155;41.890;23.446;2023-03-03T04:59:27;91681.28;;;2.99;69.28
39455;BME280;25155;41.890;23.446;2023-03-03T05:01:55;91681.28;;;2.99;69.53
39455;BME280;25155;41.890;23.446;2023-03-03T05:04:22;91677.50;;;2.90;69.68
39455;BME280;25155;41.890;23.446;2023-03-03T05:06:49;91693.50;;;2.87;70.31
39455;BME280;25155;41.890;23.446;2023-03-03T05:09:16;91690.16;;;2.86;69.93
39455;BME280;25155;41.890;23.446;2023-03-03T05:11:43;91690.91;;;2.87;69.91
39455;BME280;25155;41.890;23.446;2023-03-03T05:14:12;91693.03;;;2.90;69.91
39455;BME280;25155;41.890;23.446;2023-03-03T05:16:40;91691.78;;;2.93;70.45
39455;BME280;25155;41.890;23.446;2023-03-03T05:19:07;91695.69;;;2.95;70.13
39455;BME280;25155;41.890;23.446;2023-03-03T05:21:34;91691.88;;;2.98;69.84
39455;BME280;25155;41.890;23.446;2023-03-03T05:24:01;91691.63;;;2.99;70.01
39455;BME280;25155;41.890;23.446;2023-03-03T05:26:28;91688.25;;;2.99;69.67
39455;BME280;25155;41.890;23.446;2023-03-03T05:28:56;91698.84;;;2.97;69.96
39455;BME280;25155;41.890;23.446;2023-03-03T05:31:24;91698.06;;;2.97;69.87
39455;BME280;25155;41.890;23.446;2023-03-03T05:33:52;91698.34;;;3.00;70.10
39455;BME280;25155;41.890;23.446;2023-03-03T05:36:19;91699.03;;;2.96;70.34
39455;BME280;25155;41.890;23.446;2023-03-03T05:38:46;91702.47;;;2.96;70.41
39455;BME280;25155;41.890;23.446;2023-03-03T05:41:14;91699.88;;;2.96;70.43
39455;BME280;25155;41.890;23.446;2023-03-03T05:43:41;91704.00;;;2.97;70.31
39455;BME280;25155;41.890;23.446;2023-03-03T05:46:09;91707.41;;;2.98;70.51
39455;BME280;25155;41.890;23.446;2023-03-03T05:48:38;91711.53;;;2.99;70.42
39455;BME280;25155;41.890;23.446;2023-03-03T05:51:05;91713.41;;;3.03;70.11
39455;BME280;25155;41.890;23.446;2023-03-03T05:53:33;91707.75;;;3.06;70.08
39455;BME280;25155;41.890;23.446;2023-03-03T05:56:00;91705.94;;;3.07;70.42
39455;BME280;25155;41.890;23.446;2023-03-03T05:58:27;91710.88;;;3.08;70.36
39455;BME280;25155;41.890;23.446;2023-03-03T06:00:54;91710.59;;;3.05;70.47
39455;BME280;25155;41.890;23.446;2023-03-03T06:03:22;91715.00;;;3.04;70.17
39455;BME280;25155;41.890;23.446;2023-03-03T06:05:50;91710.81;;;3.03;70.52
39455;BME280;25155;41.890;23.446;2023-03-03T06:08:17;91713.94;;;3.05;70.34
39455;BME280;25155;41.890;23.446;2023-03-03T06:10:44;91718.13;;;3.06;70.36
39455;BME280;25155;41.890;23.446;2023-03-03T06:13:12;91724.31;;;3.05;70.25
39455;BME280;25155;41.890;23.446;2023-03-03T06:15:39;91726.84;;;3.00;70.70
39455;BME280;25155;41.890;23.446;2023-03-03T06:18:06;91718.97;;;2.95;71.10
39455;BME280;25155;41.890;23.446;2023-03-03T06:20:34;91721.34;;;2.97;70.75
39455;BME280;25155;41.890;23.446;2023-03-03T06:23:03;91729.13;;;2.97;70.88
39455;BME280;25155;41.890;23.446;2023-03-03T06:25:30;91728.41;;;3.01;70.96
39455;BME280;25155;41.890;23.446;2023-03-03T06:28:00;91727.88;;;2.99;70.91
39455;BME280;25155;41.890;23.446;2023-03-03T06:30:27;91725.28;;;2.99;71.31
39455;BME280;25155;41.890;23.446;2023-03-03T06:32:55;91732.25;;;2.99;70.99
39455;BME280;25155;41.890;23.446;2023-03-03T06:35:23;91728.66;;;3.00;71.21
39455;BME280;25155;41.890;23.446;2023-03-03T06:37:50;91724.47;;;2.99;71.06
39455;BME280;25155;41.890;23.446;2023-03-03T06:40:18;91734.13;;;3.03;71.11
39455;BME280;25155;41.890;23.446;2023-03-03T06:42:46;91731.53;;;3.03;71.29
39455;BME280;25155;41.890;23.446;2023-03-03T06:45:13;91737.72;;;3.02;71.10
39455;BME280;25155;41.890;23.446;2023-03-03T06:47:40;91734.13;;;3.03;71.29
39455;BME280;25155;41.890;23.446;2023-03-03T06:50:09;91731.78;;;3.02;71.51
39455;BME280;25155;41.890;23.446;2023-03-03T06:52:37;91738.00;;;3.01;71.62
39455;BME280;25155;41.890;23.446;2023-03-03T06:55:11;91744.19;;;3.00;71.36
39455;BME280;25155;41.890;23.446;2023-03-03T06:57:40;91744.97;;;3.00;71.56
39455;BME280;25155;41.890;23.446;2023-03-03T07:00:15;91739.78;;;3.00;71.70
39455;BME280;25155;41.890;23.446;2023-03-03T07:02:45;91740.88;;;3.04;72.18
39455;BME280;25155;41.890;23.446;2023-03-03T07:05:16;91732.88;;;3.06;72.15
39455;BME280;25155;41.890;23.446;2023-03-03T07:07:44;91725.19;;;3.11;71.85
39455;BME280;25155;41.890;23.446;2023-03-03T07:10:21;91727.81;;;3.16;71.89
39455;BME280;25155;41.890;23.446;2023-03-03T07:12:50;91732.22;;;3.16;72.22
39455;BME280;25155;41.890;23.446;2023-03-03T07:15:20;91730.19;;;3.18;72.15
39455;BME280;25155;41.890;23.446;2023-03-03T07:17:49;91733.78;;;3.17;72.05
39455;BME280;25155;41.890;23.446;2023-03-03T07:20:20;91730.19;;;3.18;71.87
39455;BME280;25155;41.890;23.446;2023-03-03T07:22:48;91731.25;;;3.22;71.68
39455;BME280;25155;41.890;23.446;2023-03-03T07:25:25;91729.22;;;3.24;71.69
39455;BME280;25155;41.890;23.446;2023-03-03T07:27:58;91730.28;;;3.28;71.75
39455;BME280;25155;41.890;23.446;2023-03-03T07:30:28;91724.63;;;3.31;71.59
39455;BME280;25155;41.890;23.446;2023-03-03T07:32:56;91727.69;;;3.28;72.01
39455;BME280;25155;41.890;23.446;2023-03-03T07:35:36;91731.25;;;3.22;71.45
39455;BME280;25155;41.890;23.446;2023-03-03T07:38:19;91728.34;;;3.18;71.04
39455;BME280;25155;41.890;23.446;2023-03-03T07:40:51;91724.19;;;3.17;71.72
39455;BME280;25155;41.890;23.446;2023-03-03T07:43:34;91726.47;;;3.14;72.18
39455;BME280;25155;41.890;23.446;2023-03-03T07:46:20;91726.25;;;3.15;71.86
39455;BME280;25155;41.890;23.446;2023-03-03T07:48:49;91720.66;;;3.23;72.54
39455;BME280;25155;41.890;23.446;2023-03-03T07:51:21;91722.59;;;3.33;72.28
39455;BME280;25155;41.890;23.446;2023-03-03T07:53:50;91720.91;;;3.44;72.23
39455;BME280;25155;41.890;23.446;2023-03-03T07:56:26;91713.78;;;3.56;71.98
39455;BME280;25155;41.890;23.446;2023-03-03T07:58:56;91707.13;;;3.65;72.31
39455;BME280;25155;41.890;23.446;2023-03-03T08:01:39;91704.13;;;3.74;71.72
39455;BME280;25155;41.890;23.446;2023-03-03T08:04:19;91711.38;;;3.77;71.98
39455;BME280;25155;41.890;23.446;2023-03-03T08:06:50;91709.81;;;3.76;71.89
39455;BME280;25155;41.890;23.446;2023-03-03T08:09:42;91711.53;;;3.65;71.71
39455;BME280;25155;41.890;23.446;2023-03-03T08:12:19;91711.56;;;3.70;71.96
39455;BME280;25155;41.890;23.446;2023-03-03T08:14:51;91716.88;;;3.80;71.38
39455;BME280;25155;41.890;23.446;2023-03-03T08:17:22;91704.72;;;3.86;71.25
39455;BME280;25155;41.890;23.446;2023-03-03T08:19:52;91705.88;;;3.95;71.62
39455;BME280;25155;41.890;23.446;2023-03-03T08:22:28;91702.59;;;4.05;71.60
39455;BME280;25155;41.890;23.446;2023-03-03T08:24:57;91699.03;;;4.16;71.77
39455;BME280;25155;41.890;23.446;2023-03-03T08:27:24;91692.66;;;4.29;71.76
39455;BME280;25155;41.890;23.446;2023-03-03T08:29:52;91695.56;;;4.38;71.47
39455;BME280;25155;41.890;23.446;2023-03-03T08:32:19;91698.81;;;4.55;71.48
39455;BME280;25155;41.890;23.446;2023-03-03T08:34:48;91692.41;;;4.68;71.04
39455;BME280;25155;41.890;23.446;2023-03-03T08:37:15;91686.72;;;4.71;71.65
39455;BME280;25155;41.890;23.446;2023-03-03T08:39:42;91695.06;;;4.79;72.03
39455;BME280;25155;41.890;23.446;2023-03-03T08:42:10;91693.50;;;4.83;71.64
39455;BME280;25155;41.890;23.446;2023-03-03T08:44:37;91696.16;;;4.88;71.86
39455;BME280;25155;41.890;23.446;2023-03-03T08:47:06;91692.50;;;4.84;71.04
39455;BME280;25155;41.890;23.446;2023-03-03T08:49:33;91687.84;;;4.91;70.50
39455;BME280;25155;41.890;23.446;2023-03-03T08:52:00;91687.06;;;4.90;69.55
39455;BME280;25155;41.890;23.446;2023-03-03T08:54:28;91689.66;;;4.85;68.76
39455;BME280;25155;41.890;23.446;2023-03-03T08:56:56;91691.72;;;4.83;68.04
39455;BME280;25155;41.890;23.446;2023-03-03T08:59:23;91688.84;;;4.80;68.19
39455;BME280;25155;41.890;23.446;2023-03-03T09:01:50;91688.06;;;4.84;68.94
39455;BME280;25155;41.890;23.446;2023-03-03T09:04:19;91682.94;;;4.89;68.97
39455;BME280;25155;41.890;23.446;2023-03-03T09:06:46;91688.16;;;4.94;69.33
39455;BME280;25155;41.890;23.446;2023-03-03T09:09:13;91683.75;;;5.00;69.26
39455;BME280;25155;41.890;23.446;2023-03-03T09:11:40;91686.84;;;4.97;67.48
39455;BME280;25155;41.890;23.446;2023-03-03T09:14:11;91689.66;;;4.85;67.94
39455;BME280;25155;41.890;23.446;2023-03-03T09:16:41;91687.53;;;4.77;67.68
39455;BME280;25155;41.890;23.446;2023-03-03T09:19:23;91680.19;;;4.69;68.01
39455;BME280;25155;41.890;23.446;2023-03-03T09:21:52;91683.59;;;4.74;67.92
39455;BME280;25155;41.890;23.446;2023-03-03T09:24:25;91688.28;;;4.78;68.48
39455;BME280;25155;41.890;23.446;2023-03-03T09:26:53;91677.44;;;4.91;68.75
39455;BME280;25155;41.890;23.446;2023-03-03T09:29:25;91677.75;;;4.94;68.44
39455;BME280;25155;41.890;23.446;2023-03-03T09:31:55;91669.44;;;4.98;68.50
39455;BME280;25155;41.890;23.446;2023-03-03T09:34:29;91670.53;;;5.07;68.95
39455;BME280;25155;41.890;23.446;2023-03-03T09:37:19;91670.78;;;5.10;68.35
39455;BME280;25155;41.890;23.446;2023-03-03T09:39:49;91673.72;;;5.19;68.41
39455;BME280;25155;41.890;23.446;2023-03-03T09:42:36;91675.25;;;5.20;67.85
39455;BME280;25155;41.890;23.446;2023-03-03T09:45:25;91680.19;;;5.22;68.14
39455;BME280;25155;41.890;23.446;2023-03-03T09:48:07;91674.53;;;5.30;67.57
39455;BME280;25155;41.890;23.446;2023-03-03T09:50:47;91670.91;;;5.36;67.60
39455;BME280;25155;41.890;23.446;2023-03-03T09:53:29;91674.25;;;5.31;67.22
39455;BME280;25155;41.890;23.446;2023-03-03T09:56:04;91670.91;;;5.31;67.77
39455;BME280;25155;41.890;23.446;2023-03-03T09:58:52;91666.75;;;5.35;67.78
39455;BME280;25155;41.890;23.446;2023-03-03T10:01:44;91665.97;;;5.40;67.01
39455;BME280;25155;41.890;23.446;2023-03-03T10:04:18;91673.91;;;5.12;67.87
39455;BME280;25155;41.890;23.446;2023-03-03T10:06:55;91673.75;;;5.29;66.83
39455;BME280;25155;41.890;23.446;2023-03-03T10:09:40;91665.72;;;5.36;66.34
39455;BME280;25155;41.890;23.446;2023-03-03T10:12:17;91674.06;;;5.43;66.47
39455;BME280;25155;41.890;23.446;2023-03-03T10:15:02;91662.91;;;5.43;65.94
39455;BME280;25155;41.890;23.446;2023-03-03T10:17:47;91664.94;;;5.41;66.36
39455;BME280;25155;41.890;23.446;2023-03-03T10:20:29;91664.19;;;5.45;66.71
39455;BME280;25155;41.890;23.446;2023-03-03T10:23:14;91659.28;;;5.49;66.66
39455;BME280;25155;41.890;23.446;2023-03-03T10:25:55;91659.31;;;5.54;66.71
39455;BME280;25155;41.890;23.446;2023-03-03T10:28:49;91656.44;;;5.56;67.05
39455;BME280;25155;41.890;23.446;2023-03-03T10:31:30;91657.22;;;5.61;66.97
39455;BME280;25155;41.890;23.446;2023-03-03T10:34:20;91657.50;;;5.65;66.66
39455;BME280;25155;41.890;23.446;2023-03-03T10:36:58;91651.25;;;5.66;66.59
39455;BME280;25155;41.890;23.446;2023-03-03T10:39:48;91653.84;;;5.66;66.73
39455;BME280;25155;41.890;23.446;2023-03-03T10:42:35;91651.00;;;5.67;66.66
39455;BME280;25155;41.890;23.446;2023-03-03T10:45:38;91645.25;;;5.65;66.88
39455;BME280;25155;41.890;23.446;2023-03-03T10:48:19;91643.22;;;5.67;66.97
39455;BME280;25155;41.890;23.446;2023-03-03T10:50:57;91633.31;;;5.70;67.26
39455;BME280;25155;41.890;23.446;2023-03-03T10:53:31;91639.56;;;5.74;67.06
39455;BME280;25155;41.890;23.446;2023-03-03T10:56:14;91631.25;;;5.77;67.12
39455;BME280;25155;41.890;23.446;2023-03-03T10:58:55;91632.03;;;5.77;67.30
39455;BME280;25155;41.890;23.446;2023-03-03T11:01:41;91631.25;;;5.82;67.47
39455;BME280;25155;41.890;23.446;2023-03-03T11:04:41;91628.13;;;5.80;67.13
39455;BME280;25155;41.890;23.446;2023-03-03T11:07:14;91623.19;;;5.89;66.98
39455;BME280;25155;41.890;23.446;2023-03-03T11:10:00;91627.09;;;5.91;66.96
39455;BME280;25155;41.890;23.446;2023-03-03T11:12:44;91616.97;;;5.95;66.98
39455;BME280;25155;41.890;23.446;2023-03-03T11:15:29;91614.34;;;6.00;66.60
39455;BME280;25155;41.890;23.446;2023-03-03T11:18:10;91610.19;;;6.04;66.72
39455;BME280;25155;41.890;23.446;2023-03-03T11:20:46;91619.53;;;6.10;66.47
39455;BME280;25155;41.890;23.446;2023-03-03T11:23:29;91613.56;;;6.10;66.07
39455;BME280;25155;41.890;23.446;2023-03-03T11:26:11;91607.09;;;6.12;65.93
39455;BME280;25155;41.890;23.446;2023-03-03T11:29:02;91607.84;;;6.13;66.33
39455;BME280;25155;41.890;23.446;2023-03-03T11:31:39;91610.97;;;6.20;65.90
39455;BME280;25155;41.890;23.446;2023-03-03T11:34:16;91610.19;;;6.14;65.21
39455;BME280;25155;41.890;23.446;2023-03-03T11:36:49;91609.44;;;6.09;65.18
39455;BME280;25155;41.890;23.446;2023-03-03T11:39:21;91614.09;;;6.07;65.69
39455;BME280;25155;41.890;23.446;2023-03-03T11:41:55;91611.50;;;5.76;66.37
39455;BME280;25155;41.890;23.446;2023-03-03T11:44:29;91604.75;;;6.00;66.69
39455;BME280;25155;41.890;23.446;2023-03-03T11:47:02;91601.34;;;6.20;65.66
39455;BME280;25155;41.890;23.446;2023-03-03T11:49:35;91594.81;;;6.23;64.14
39455;BME280;25155;41.890;23.446;2023-03-03T11:52:18;91595.63;;;6.13;64.25
39455;BME280;25155;41.890;23.446;2023-03-03T11:54:51;91596.41;;;6.19;64.73
39455;BME280;25155;41.890;23.446;2023-03-03T11:57:24;91593.28;;;6.12;63.65
39455;BME280;25155;41.890;23.446;2023-03-03T12:00:05;91591.22;;;6.09;63.44
39455;BME280;25155;41.890;23.446;2023-03-03T12:02:57;91593.00;;;6.13;63.61
39455;BME280;25155;41.890;23.446;2023-03-03T12:05:44;91587.53;;;6.20;64.17
39455;BME280;25155;41.890;23.446;2023-03-03T12:08:21;91589.09;;;6.31;64.13
39455;BME280;25155;41.890;23.446;2023-03-03T12:10:57;91586.22;;;6.33;64.09
39455;BME280;25155;41.890;23.446;2023-03-03T12:13:35;91580.25;;;6.32;63.18
39455;BME280;25155;41.890;23.446;2023-03-03T12:16:11;91577.69;;;6.17;62.59
39455;BME280;25155;41.890;23.446;2023-03-03T12:18:55;91586.25;;;6.12;63.09
39455;BME280;25155;41.890;23.446;2023-03-03T12:21:38;91578.69;;;6.21;63.70
39455;BME280;25155;41.890;23.446;2023-03-03T12:24:21;91564.38;;;6.29;62.32
39455;BME280;25155;41.890;23.446;2023-03-03T12:26:59;91555.25;;;6.31;63.52
39455;BME280;25155;41.890;23.446;2023-03-03T12:29:40;91565.38;;;6.43;63.46
39455;BME280;25155;41.890;23.446;2023-03-03T12:32:21;91562.50;;;6.50;63.78
39455;BME280;25155;41.890;23.446;2023-03-03T12:34:53;91555.22;;;6.57;63.63
39455;BME280;25155;41.890;23.446;2023-03-03T12:40:18;91554.59;;;6.81;64.48
39455;BME280;25155;41.890;23.446;2023-03-03T12:43:04;91555.88;;;6.88;64.54
39455;BME280;25155;41.890;23.446;2023-03-03T12:45:39;91556.06;;;7.02;63.19
39455;BME280;25155;41.890;23.446;2023-03-03T12:48:15;91555.75;;;7.14;63.78
39455;BME280;25155;41.890;23.446;2023-03-03T12:50:52;91541.34;;;7.32;63.95
39455;BME280;25155;41.890;23.446;2023-03-03T12:56:16;91544.56;;;7.13;60.58
39455;BME280;25155;41.890;23.446;2023-03-03T12:58:52;91538.78;;;7.22;61.13
39455;BME280;25155;41.890;23.446;2023-03-03T13:01:33;91543.47;;;7.20;59.34
39455;BME280;25155;41.890;23.446;2023-03-03T13:04:11;91542.50;;;7.05;59.40
39455;BME280;25155;41.890;23.446;2023-03-03T13:06:46;91548.72;;;7.09;59.55
39455;BME280;25155;41.890;23.446;2023-03-03T13:09:27;91536.06;;;6.92;56.93
39455;BME280;25155;41.890;23.446;2023-03-03T13:12:17;91538.44;;;6.84;59.03
39455;BME280;25155;41.890;23.446;2023-03-03T13:14:52;91537.34;;;6.95;58.93
39455;BME280;25155;41.890;23.446;2023-03-03T13:17:25;91533.34;;;7.08;58.78
39455;BME280;25155;41.890;23.446;2023-03-03T13:19:57;91535.22;;;7.02;57.84
39455;BME280;25155;41.890;23.446;2023-03-03T13:22:37;91537.13;;;6.91;58.28
39455;BME280;25155;41.890;23.446;2023-03-03T13:25:18;91541.56;;;6.86;57.79
39455;BME280;25155;41.890;23.446;2023-03-03T13:27:52;91535.53;;;6.95;57.75
39455;BME280;25155;41.890;23.446;2023-03-03T13:30:24;91541.75;;;7.00;56.50
39455;BME280;25155;41.890;23.446;2023-03-03T13:32:58;91537.84;;;7.02;57.84